Terminal Aerodrome Forecast
Issued by NWS Houston/Galveston, TX

Current Version | Previous Version | Text Only | Print | Product List | Glossary On
Versions: 1 2 3 4 5 6 7 8 9 10 11 12 13 14 15 16 17 18 19 20 21 22 23 24
000
FTUS44 KHGX 010527
TAFCLL
TAF
KCLL 010527Z 0106/0206 16003KT P6SM SKC
     FM010900 VRB03KT 6SM BR FEW007 BKN015
     FM011400 17007KT P6SM SCT025 SCT250
     FM020300 16006KT P6SM SCT100=

USA.gov is the U.S. government's official web portal to all federal, state and local government web resources and services.